Time,TemperatureF,DewpointF,PressureIn,WindDirection,WindDirectionDegrees,WindSpeedMPH,WindSpeedGustMPH,Humidity,HourlyPrecipIn,Conditions,Clouds,dailyrainin,SoftwareType,DateUTC
2013-07-10 00:02:00,72.9,64.5,29.87,NW,324,2.3,6.7,75,0.00,,,0.00,WUHU21623XXSP,2013-07-10 05:02:00,
2013-07-10 00:07:00,72.7,64.3,29.87,NW,319,2.1,8.9,75,0.00,,,0.00,WUHU21623XXSP,2013-07-10 05:07:00,
2013-07-10 00:12:00,72.5,64.1,29.87,NW,309,2.1,8.9,75,0.00,,,0.00,WUHU21623XXSP,2013-07-10 05:12:00,
2013-07-10 00:17:00,72.3,64.3,29.87,WNW,283,2.2,5.1,76,0.00,,,0.00,WUHU21623XXSP,2013-07-10 05:17:00,
2013-07-10 00:22:00,72.1,64.1,29.88,NW,306,2.2,5.1,76,0.00,,,0.00,WUHU21623XXSP,2013-07-10 05:22:00,
2013-07-10 00:27:00,72.1,64.1,29.88,West,266,2.2,6.7,76,0.00,,,0.00,WUHU21623XXSP,2013-07-10 05:27:00,
2013-07-10 00:32:00,71.8,63.8,29.88,West,270,3.6,7.6,76,0.00,,,0.00,WUHU21623XXSP,2013-07-10 05:32:00,
2013-07-10 00:37:00,71.8,63.8,29.88,NW,309,3.5,7.6,76,0.00,,,0.00,WUHU21623XXSP,2013-07-10 05:37:00,
2013-07-10 00:42:00,71.4,63.4,29.88,West,270,3.1,5.8,76,0.00,,,0.00,WUHU21623XXSP,2013-07-10 05:42:00,
2013-07-10 00:47:00,71.4,63.4,29.88,NE,40,3.4,6.9,76,0.00,,,0.00,WUHU21623XXSP,2013-07-10 05:47:00,
2013-07-10 00:52:00,71.2,63.2,29.88,SSW,195,1.9,6.9,76,0.00,,,0.00,WUHU21623XXSP,2013-07-10 05:52:00,
2013-07-10 00:57:00,71.2,63.2,29.88,NW,315,3.3,5.8,76,0.00,,,0.00,WUHU21623XXSP,2013-07-10 05:57:00,
2013-07-10 01:02:00,71.1,62.7,29.88,West,276,2.8,5.8,75,0.00,,,0.00,WUHU21623XXSP,2013-07-10 06:02:00,
2013-07-10 01:07:00,70.9,62.5,29.89,WNW,292,5.8,5.8,75,0.00,,,0.00,WUHU21623XXSP,2013-07-10 06:07:00,
2013-07-10 01:12:00,70.5,62.2,29.88,NW,310,4.3,6.7,75,0.00,,,0.00,WUHU21623XXSP,2013-07-10 06:12:00,
2013-07-10 01:17:00,70.5,62.2,29.89,NNE,15,3.7,6.9,75,0.00,,,0.00,WUHU21623XXSP,2013-07-10 06:17:00,
2013-07-10 01:22:00,70.3,61.6,29.89,NNW,340,2.5,11.9,74,0.00,,,0.00,WUHU21623XXSP,2013-07-10 06:22:00,
2013-07-10 01:27:00,70.0,61.2,29.89,NNE,22,3.6,13.6,74,0.00,,,0.00,WUHU21623XXSP,2013-07-10 06:27:00,
2013-07-10 01:32:00,69.8,61.1,29.89,SSE,157,3.8,13.6,74,0.00,,,0.00,WUHU21623XXSP,2013-07-10 06:32:00,
2013-07-10 01:37:00,69.6,60.5,29.90,NNW,345,4.1,9.4,73,0.00,,,0.00,WUHU21623XXSP,2013-07-10 06:37:00,
2013-07-10 01:42:00,69.4,60.4,29.89,North,352,4.1,7.6,73,0.00,,,0.00,WUHU21623XXSP,2013-07-10 06:42:00,
2013-07-10 01:47:00,69.3,60.2,29.90,WNW,293,2.3,7.6,73,0.00,,,0.00,WUHU21623XXSP,2013-07-10 06:47:00,
2013-07-10 01:52:00,68.9,59.9,29.90,WNW,285,3.1,7.2,73,0.00,,,0.00,WUHU21623XXSP,2013-07-10 06:52:00,
2013-07-10 01:57:00,68.7,59.7,29.89,North,0,3.1,8.1,73,0.00,,,0.00,WUHU21623XXSP,2013-07-10 06:57:00,
2013-07-10 02:02:00,68.5,59.5,29.90,WNW,283,2.6,8.1,73,0.00,,,0.00,WUHU21623XXSP,2013-07-10 07:02:00,
2013-07-10 02:07:00,68.4,59.4,29.90,NW,312,2.0,4.5,73,0.00,,,0.00,WUHU21623XXSP,2013-07-10 07:07:00,
2013-07-10 02:12:00,68.2,59.2,29.90,WNW,291,2.6,7.4,73,0.00,,,0.00,WUHU21623XXSP,2013-07-10 07:12:00,
2013-07-10 02:17:00,68.0,59.1,29.90,WNW,301,3.2,8.1,73,0.00,,,0.00,WUHU21623XXSP,2013-07-10 07:17:00,
2013-07-10 02:22:00,67.8,58.9,29.90,NNW,337,3.3,8.1,73,0.00,,,0.00,WUHU21623XXSP,2013-07-10 07:22:00,
2013-07-10 02:27:00,67.6,58.7,29.91,West,270,8.3,8.3,73,0.00,,,0.00,WUHU21623XXSP,2013-07-10 07:27:00,
2013-07-10 02:32:00,67.5,58.1,29.91,NNE,22,3.4,8.3,72,0.00,,,0.00,WUHU21623XXSP,2013-07-10 07:32:00,
2013-07-10 02:37:00,67.3,58.0,29.91,NW,312,2.1,7.8,72,0.00,,,0.00,WUHU21623XXSP,2013-07-10 07:37:00,
2013-07-10 02:42:00,67.1,57.8,29.91,ENE,67,2.5,7.8,72,0.00,,,0.00,WUHU21623XXSP,2013-07-10 07:42:00,
2013-07-10 02:47:00,66.9,58.0,29.92,NE,45,2.5,4.9,73,0.00,,,0.00,WUHU21623XXSP,2013-07-10 07:47:00,
2013-07-10 02:52:00,66.9,58.0,29.92,NNW,337,2.0,4.9,73,0.00,,,0.00,WUHU21623XXSP,2013-07-10 07:52:00,
2013-07-10 02:57:00,66.7,57.8,29.91,NNW,337,3.6,4.0,73,0.00,,,0.00,WUHU21623XXSP,2013-07-10 07:57:00,
2013-07-10 03:02:00,66.6,58.0,29.92,NNE,28,2.6,5.4,74,0.00,,,0.00,WUHU21623XXSP,2013-07-10 08:02:00,
2013-07-10 03:07:00,66.4,57.8,29.92,NNW,337,1.8,5.4,74,0.00,,,0.00,WUHU21623XXSP,2013-07-10 08:07:00,
2013-07-10 03:12:00,66.4,58.2,29.92,NW,324,1.7,3.8,75,0.00,,,0.00,WUHU21623XXSP,2013-07-10 08:12:00,
2013-07-10 03:17:00,66.0,57.8,29.92,NNE,22,1.6,3.8,75,0.00,,,0.00,WUHU21623XXSP,2013-07-10 08:17:00,
2013-07-10 03:22:00,66.0,57.5,29.92,NW,326,2.1,3.8,74,0.00,,,0.00,WUHU21623XXSP,2013-07-10 08:22:00,
2013-07-10 03:28:00,65.8,57.7,29.92,NNW,342,2.0,4.5,75,0.00,,,0.00,WUHU21623XXSP,2013-07-10 08:28:00,
2013-07-10 03:33:00,65.8,57.7,29.92,WNW,295,1.8,4.5,75,0.00,,,0.00,WUHU21623XXSP,2013-07-10 08:33:00,
2013-07-10 03:38:00,65.7,57.5,29.92,WNW,285,2.5,4.3,75,0.00,,,0.00,WUHU21623XXSP,2013-07-10 08:38:00,
2013-07-10 03:43:00,65.5,57.3,29.92,WNW,292,4.3,4.5,75,0.00,,,0.00,WUHU21623XXSP,2013-07-10 08:43:00,
2013-07-10 03:48:00,65.3,57.5,29.93,WSW,247,2.0,4.5,76,0.00,,,0.00,WUHU21623XXSP,2013-07-10 08:48:00,
2013-07-10 03:53:00,65.1,57.3,29.93,North,7,1.8,5.1,76,0.00,,,0.00,WUHU21623XXSP,2013-07-10 08:53:00,
2013-07-10 03:58:00,65.1,57.3,29.93,West,263,1.7,5.1,76,0.00,,,0.00,WUHU21623XXSP,2013-07-10 08:58:00,
2013-07-10 04:03:00,64.9,57.2,29.93,WNW,292,2.5,3.6,76,0.00,,,0.00,WUHU21623XXSP,2013-07-10 09:03:00,
2013-07-10 04:08:00,64.9,57.2,29.93,NNW,337,1.8,3.8,76,0.00,,,0.00,WUHU21623XXSP,2013-07-10 09:08:00,
2013-07-10 04:13:00,64.8,57.0,29.93,NNW,328,2.2,6.5,76,0.00,,,0.00,WUHU21623XXSP,2013-07-10 09:13:00,
2013-07-10 04:18:00,64.8,57.4,29.94,NW,319,1.4,6.5,77,0.00,,,0.00,WUHU21623XXSP,2013-07-10 09:18:00,
2013-07-10 04:23:00,64.6,57.2,29.94,West,270,2.7,5.4,77,0.00,,,0.00,WUHU21623XXSP,2013-07-10 09:23:00,
2013-07-10 04:28:00,64.6,57.2,29.94,West,271,1.4,4.3,77,0.00,,,0.00,WUHU21623XXSP,2013-07-10 09:28:00,
2013-07-10 04:33:00,64.4,57.0,29.95,West,270,2.5,3.6,77,0.00,,,0.00,WUHU21623XXSP,2013-07-10 09:33:00,
2013-07-10 04:38:00,64.2,56.8,29.95,WSW,239,1.1,4.0,77,0.00,,,0.00,WUHU21623XXSP,2013-07-10 09:38:00,
2013-07-10 04:43:00,64.2,57.2,29.95,ENE,67,3.6,4.5,78,0.00,,,0.00,WUHU21623XXSP,2013-07-10 09:43:00,
2013-07-10 04:48:00,64.2,57.2,29.94,NW,314,2.7,7.4,78,0.00,,,0.00,WUHU21623XXSP,2013-07-10 09:48:00,
2013-07-10 04:53:00,64.0,57.0,29.94,NNW,345,2.7,7.4,78,0.00,,,0.00,WUHU21623XXSP,2013-07-10 09:53:00,
2013-07-10 04:58:00,64.0,57.0,29.95,NW,322,1.7,5.8,78,0.00,,,0.00,WUHU21623XXSP,2013-07-10 09:58:00,
2013-07-10 05:03:00,63.9,56.8,29.95,NNW,343,1.4,5.8,78,0.00,,,0.00,WUHU21623XXSP,2013-07-10 10:03:00,
2013-07-10 05:08:00,63.7,56.7,29.95,West,270,3.4,5.1,78,0.00,,,0.00,WUHU21623XXSP,2013-07-10 10:08:00,
2013-07-10 05:13:00,63.7,56.7,29.95,NW,315,0.0,3.6,78,0.00,,,0.00,WUHU21623XXSP,2013-07-10 10:13:00,
2013-07-10 05:18:00,63.5,56.5,29.95,WNW,286,1.5,3.4,78,0.00,,,0.00,WUHU21623XXSP,2013-07-10 10:18:00,
2013-07-10 05:23:00,63.5,56.5,29.95,West,270,5.1,5.1,78,0.00,,,0.00,WUHU21623XXSP,2013-07-10 10:23:00,
2013-07-10 05:28:00,63.3,56.3,29.95,ENE,67,1.6,5.1,78,0.00,,,0.00,WUHU21623XXSP,2013-07-10 10:28:00,
2013-07-10 05:33:00,63.1,56.5,29.95,NNE,22,2.5,3.1,79,0.00,,,0.00,WUHU21623XXSP,2013-07-10 10:33:00,
2013-07-10 05:38:00,63.1,56.5,29.95,West,260,1.7,3.4,79,0.00,,,0.00,WUHU21623XXSP,2013-07-10 10:38:00,
2013-07-10 05:43:00,63.1,56.5,29.95,NNE,22,3.6,4.0,79,0.00,,,0.00,WUHU21623XXSP,2013-07-10 10:43:00,
2013-07-10 05:48:00,63.0,56.3,29.96,WNW,284,1.5,4.0,79,0.00,,,0.00,WUHU21623XXSP,2013-07-10 10:48:00,
2013-07-10 05:53:00,63.0,56.7,29.96,West,270,2.7,2.7,80,0.00,,,0.00,WUHU21623XXSP,2013-07-10 10:53:00,
2013-07-10 05:58:00,62.8,56.5,29.97,NW,315,2.0,3.6,80,0.00,,,0.00,WUHU21623XXSP,2013-07-10 10:58:00,
2013-07-10 06:03:00,62.8,56.5,29.96,West,265,1.3,3.6,80,0.00,,,0.00,WUHU21623XXSP,2013-07-10 11:03:00,
2013-07-10 06:08:00,62.6,56.3,29.97,West,270,1.6,4.0,80,0.00,,,0.00,WUHU21623XXSP,2013-07-10 11:08:00,
2013-07-10 06:13:00,62.4,56.1,29.97,NW,315,2.0,4.0,80,0.00,,,0.00,WUHU21623XXSP,2013-07-10 11:13:00,
2013-07-10 06:18:00,62.4,56.1,29.97,WNW,284,1.5,3.1,80,0.00,,,0.00,WUHU21623XXSP,2013-07-10 11:18:00,
2013-07-10 06:23:00,62.4,56.1,29.97,WNW,292,0.7,3.4,80,0.00,,,0.00,WUHU21623XXSP,2013-07-10 11:23:00,
2013-07-10 06:28:00,62.2,56.0,29.97,WNW,290,2.8,5.1,80,0.00,,,0.00,WUHU21623XXSP,2013-07-10 11:28:00,
2013-07-10 06:33:00,62.2,56.0,29.98,WSW,258,1.9,5.1,80,0.00,,,0.00,WUHU21623XXSP,2013-07-10 11:33:00,
2013-07-10 06:39:00,62.2,56.3,29.98,WSW,252,2.1,4.0,81,0.00,,,0.00,WUHU21623XXSP,2013-07-10 11:39:00,
2013-07-10 06:44:00,62.2,56.3,29.98,West,266,2.0,4.0,81,0.00,,,0.00,WUHU21623XXSP,2013-07-10 11:44:00,
2013-07-10 06:49:00,62.2,56.3,29.98,West,270,1.1,5.8,81,0.00,,,0.00,WUHU21623XXSP,2013-07-10 11:49:00,
2013-07-10 06:54:00,62.2,56.3,29.98,WNW,287,1.8,5.8,81,0.00,,,0.00,WUHU21623XXSP,2013-07-10 11:54:00,
2013-07-10 06:59:00,62.4,56.5,29.99,WNW,289,1.3,4.5,81,0.00,,,0.00,WUHU21623XXSP,2013-07-10 11:59:00,
2013-07-10 07:04:00,62.4,56.8,29.99,NNW,337,2.0,3.4,82,0.00,,,0.00,WUHU21623XXSP,2013-07-10 12:04:00,
2013-07-10 07:09:00,62.4,56.8,29.98,WNW,283,2.4,4.3,82,0.00,,,0.00,WUHU21623XXSP,2013-07-10 12:09:00,
2013-07-10 07:14:00,62.4,56.8,29.98,WSW,250,2.9,6.3,82,0.00,,,0.00,WUHU21623XXSP,2013-07-10 12:14:00,
2013-07-10 07:19:00,62.4,56.8,29.99,West,275,1.3,6.3,82,0.00,,,0.00,WUHU21623XXSP,2013-07-10 12:19:00,
2013-07-10 07:24:00,62.8,57.2,29.99,West,267,2.5,4.3,82,0.00,,,0.00,WUHU21623XXSP,2013-07-10 12:24:00,
2013-07-10 07:29:00,62.8,57.2,29.99,North,0,2.5,4.3,82,0.00,,,0.00,WUHU21623XXSP,2013-07-10 12:29:00,
2013-07-10 07:34:00,63.0,57.3,29.99,North,0,1.9,4.7,82,0.00,,,0.00,WUHU21623XXSP,2013-07-10 12:34:00,
2013-07-10 07:39:00,63.1,57.5,29.98,WSW,247,1.3,4.7,82,0.00,,,0.00,WUHU21623XXSP,2013-07-10 12:39:00,
2013-07-10 07:44:00,63.1,57.5,29.98,West,263,1.2,3.1,82,0.00,,,0.00,WUHU21623XXSP,2013-07-10 12:44:00,
2013-07-10 07:49:00,63.5,57.9,29.98,West,278,2.3,7.2,82,0.00,,,0.00,WUHU21623XXSP,2013-07-10 12:49:00,
2013-07-10 07:54:00,63.7,58.1,29.99,West,265,1.9,7.2,82,0.00,,,0.00,WUHU21623XXSP,2013-07-10 12:54:00,
2013-07-10 07:59:00,63.7,57.7,29.99,West,278,2.1,3.8,81,0.00,,,0.00,WUHU21623XXSP,2013-07-10 12:59:00,
2013-07-10 08:04:00,63.9,57.9,29.99,West,265,1.6,3.8,81,0.00,,,0.00,WUHU21623XXSP,2013-07-10 13:04:00,
2013-07-10 08:09:00,64.0,58.1,29.98,NW,311,2.7,6.3,81,0.00,,,0.00,WUHU21623XXSP,2013-07-10 13:09:00,
2013-07-10 08:14:00,64.2,57.9,29.98,SSW,202,1.8,6.3,80,0.00,,,0.00,WUHU21623XXSP,2013-07-10 13:14:00,
2013-07-10 08:19:00,64.2,57.9,29.98,NE,45,1.6,6.0,80,0.00,,,0.00,WUHU21623XXSP,2013-07-10 13:19:00,
2013-07-10 08:24:00,64.6,58.3,29.98,NW,315,3.4,6.9,80,0.00,,,0.00,WUHU21623XXSP,2013-07-10 13:24:00,
2013-07-10 08:29:00,64.6,57.9,29.98,West,263,1.8,6.9,79,0.00,,,0.00,WUHU21623XXSP,2013-07-10 13:29:00,
2013-07-10 08:34:00,64.8,58.1,29.99,WNW,282,2.1,6.3,79,0.00,,,0.00,WUHU21623XXSP,2013-07-10 13:34:00,
2013-07-10 08:39:00,64.9,58.3,29.98,West,276,2.5,8.9,79,0.00,,,0.00,WUHU21623XXSP,2013-07-10 13:39:00,
2013-07-10 08:44:00,65.1,58.4,29.99,West,272,2.2,8.9,79,0.00,,,0.00,WUHU21623XXSP,2013-07-10 13:44:00,
2013-07-10 08:49:00,65.3,58.6,29.99,West,270,3.4,6.3,79,0.00,,,0.00,WUHU21623XXSP,2013-07-10 13:49:00,
2013-07-10 08:54:00,65.5,58.8,29.99,NW,316,3.3,6.3,79,0.00,,,0.00,WUHU21623XXSP,2013-07-10 13:54:00,
2013-07-10 08:59:00,65.5,58.4,29.99,West,269,2.1,4.5,78,0.00,,,0.00,WUHU21623XXSP,2013-07-10 13:59:00,
2013-07-10 09:04:00,65.8,58.4,29.98,North,0,3.1,4.5,77,0.00,,,0.00,WUHU21623XXSP,2013-07-10 14:04:00,
2013-07-10 09:09:00,66.0,58.6,29.98,SSW,202,2.2,3.8,77,0.00,,,0.00,WUHU21623XXSP,2013-07-10 14:09:00,
2013-07-10 09:14:00,66.0,58.6,29.98,WNW,297,2.6,4.7,77,0.00,,,0.00,WUHU21623XXSP,2013-07-10 14:14:00,
2013-07-10 09:19:00,66.4,58.9,29.98,ENE,67,3.8,6.0,77,0.00,,,0.00,WUHU21623XXSP,2013-07-10 14:19:00,
2013-07-10 09:24:00,66.6,58.7,29.98,NE,37,2.0,6.0,76,0.00,,,0.00,WUHU21623XXSP,2013-07-10 14:24:00,
2013-07-10 09:29:00,66.7,58.9,29.98,North,354,1.8,4.5,76,0.00,,,0.00,WUHU21623XXSP,2013-07-10 14:29:00,
2013-07-10 09:34:00,66.9,58.7,29.98,North,0,2.5,5.1,75,0.00,,,0.00,WUHU21623XXSP,2013-07-10 14:34:00,
2013-07-10 09:39:00,67.1,58.9,29.98,NNW,338,3.3,5.6,75,0.00,,,0.00,WUHU21623XXSP,2013-07-10 14:39:00,
2013-07-10 09:44:00,67.3,59.1,29.98,NW,325,1.9,8.1,75,0.00,,,0.00,WUHU21623XXSP,2013-07-10 14:44:00,
2013-07-10 09:49:00,67.6,59.5,29.98,NW,310,2.6,8.1,75,0.00,,,0.00,WUHU21623XXSP,2013-07-10 14:49:00,
2013-07-10 09:54:00,67.8,59.6,29.98,WNW,288,2.0,4.9,75,0.00,,,0.00,WUHU21623XXSP,2013-07-10 14:54:00,
2013-07-10 09:59:00,67.8,59.6,29.98,NW,315,2.5,5.8,75,0.00,,,0.00,WUHU21623XXSP,2013-07-10 14:59:00,
2013-07-10 10:04:00,68.2,59.6,29.98,WNW,299,3.1,5.8,74,0.00,,,0.00,WUHU21623XXSP,2013-07-10 15:04:00,
2013-07-10 10:09:00,68.5,59.9,29.98,WNW,296,4.7,8.1,74,0.00,,,0.00,WUHU21623XXSP,2013-07-10 15:09:00,
2013-07-10 10:14:00,68.7,60.1,29.98,WNW,302,2.8,8.1,74,0.00,,,0.00,WUHU21623XXSP,2013-07-10 15:14:00,
2013-07-10 10:19:00,68.9,60.2,29.98,West,270,3.8,7.2,74,0.00,,,0.00,WUHU21623XXSP,2013-07-10 15:19:00,
2013-07-10 10:24:00,69.3,60.2,29.98,WNW,292,2.7,7.2,73,0.00,,,0.00,WUHU21623XXSP,2013-07-10 15:24:00,
2013-07-10 10:29:00,69.6,60.5,29.98,NW,315,2.5,5.4,73,0.00,,,0.00,WUHU21623XXSP,2013-07-10 15:29:00,
2013-07-10 10:34:00,69.6,60.1,29.98,NW,306,2.3,9.2,72,0.00,,,0.00,WUHU21623XXSP,2013-07-10 15:34:00,
2013-07-10 10:40:00,70.0,60.1,29.98,West,270,3.6,9.2,71,0.00,,,0.00,WUHU21623XXSP,2013-07-10 15:40:00,
2013-07-10 10:45:00,70.2,60.3,29.98,ENE,67,2.0,5.1,71,0.00,,,0.00,WUHU21623XXSP,2013-07-10 15:45:00,
2013-07-10 10:50:00,70.3,60.5,29.98,NE,45,6.9,9.2,71,0.00,,,0.00,WUHU21623XXSP,2013-07-10 15:50:00,
2013-07-10 10:55:00,70.3,59.6,29.98,WSW,247,7.4,9.2,69,0.00,,,0.00,WUHU21623XXSP,2013-07-10 15:55:00,
2013-07-10 11:00:00,70.7,60.0,29.98,NW,307,3.0,7.4,69,0.00,,,0.00,WUHU21623XXSP,2013-07-10 16:00:00,
2013-07-10 11:06:00,70.9,59.8,29.98,NW,322,3.2,7.4,68,0.00,,,0.00,WUHU21623XXSP,2013-07-10 16:06:00,
2013-07-10 11:11:00,71.2,59.7,29.98,NNE,30,5.5,9.8,67,0.00,,,0.00,WUHU21623XXSP,2013-07-10 16:11:00,
2013-07-10 11:16:00,71.4,58.6,29.98,ESE,112,8.3,9.8,64,0.00,,,0.00,WUHU21623XXSP,2013-07-10 16:16:00,
2013-07-10 11:21:00,71.4,58.6,29.98,WNW,303,2.2,8.3,64,0.00,,,0.00,WUHU21623XXSP,2013-07-10 16:21:00,
2013-07-10 11:26:00,72.1,58.8,29.98,NE,49,3.4,7.8,63,0.00,,,0.00,WUHU21623XXSP,2013-07-10 16:26:00,
2013-07-10 11:31:00,72.3,58.5,29.98,WSW,247,2.9,7.4,62,0.00,,,0.00,WUHU21623XXSP,2013-07-10 16:31:00,
2013-07-10 11:36:00,72.7,59.3,29.98,NNW,341,1.9,6.9,63,0.00,,,0.00,WUHU21623XXSP,2013-07-10 16:36:00,
2013-07-10 11:41:00,73.2,58.9,29.98,NNE,14,3.0,9.8,61,0.00,,,0.00,WUHU21623XXSP,2013-07-10 16:41:00,
2013-07-10 11:46:00,73.6,58.8,29.98,NNW,336,2.3,9.8,60,0.00,,,0.00,WUHU21623XXSP,2013-07-10 16:46:00,
2013-07-10 11:51:00,73.9,58.7,29.98,NW,314,2.3,8.9,59,0.00,,,0.00,WUHU21623XXSP,2013-07-10 16:51:00,
2013-07-10 11:56:00,74.3,58.5,29.98,NE,49,2.7,8.9,58,0.00,,,0.00,WUHU21623XXSP,2013-07-10 16:56:00,
2013-07-10 12:01:00,74.8,59.1,29.98,North,0,2.5,7.8,58,0.00,,,0.00,WUHU21623XXSP,2013-07-10 17:01:00,
2013-07-10 12:06:00,75.0,58.2,29.98,NNE,30,4.0,9.2,56,0.00,,,0.00,WUHU21623XXSP,2013-07-10 17:06:00,
2013-07-10 12:11:00,75.4,58.6,29.98,NNE,12,4.2,9.2,56,0.00,,,0.00,WUHU21623XXSP,2013-07-10 17:11:00,
2013-07-10 12:16:00,75.9,59.1,29.98,NNE,18,2.5,6.7,56,0.00,,,0.00,WUHU21623XXSP,2013-07-10 17:16:00,
2013-07-10 12:21:00,76.1,57.7,29.98,ENE,59,3.6,6.7,53,0.00,,,0.00,WUHU21623XXSP,2013-07-10 17:21:00,
2013-07-10 12:26:00,76.5,58.5,29.98,NE,38,2.2,6.5,54,0.00,,,0.00,WUHU21623XXSP,2013-07-10 17:26:00,
2013-07-10 12:31:00,76.8,58.9,29.98,North,353,2.7,6.0,54,0.00,,,0.00,WUHU21623XXSP,2013-07-10 17:31:00,
2013-07-10 12:36:00,77.2,58.7,29.98,NNW,337,5.4,8.5,53,0.00,,,0.00,WUHU21623XXSP,2013-07-10 17:36:00,
2013-07-10 12:41:00,77.5,58.0,29.98,North,0,5.1,8.5,51,0.00,,,0.00,WUHU21623XXSP,2013-07-10 17:41:00,
2013-07-10 12:46:00,77.5,58.5,29.98,North,7,3.1,8.5,52,0.00,,,0.00,WUHU21623XXSP,2013-07-10 17:46:00,
2013-07-10 12:51:00,77.9,59.4,29.98,North,0,13.9,13.9,53,0.00,,,0.00,WUHU21623XXSP,2013-07-10 17:51:00,
2013-07-10 12:56:00,78.1,58.5,29.98,NE,45,3.6,13.9,51,0.00,,,0.00,WUHU21623XXSP,2013-07-10 17:56:00,
2013-07-10 13:01:00,78.4,59.3,29.98,North,8,4.7,7.2,52,0.00,,,0.00,WUHU21623XXSP,2013-07-10 18:01:00,
2013-07-10 13:06:00,79.0,59.3,29.98,WNW,283,2.4,7.2,51,0.00,,,0.00,WUHU21623XXSP,2013-07-10 18:06:00,
2013-07-10 13:11:00,79.3,58.5,29.97,ENE,67,4.7,6.9,49,0.00,,,0.00,WUHU21623XXSP,2013-07-10 18:11:00,
2013-07-10 13:16:00,79.3,58.5,29.97,WNW,292,8.3,8.3,49,0.00,,,0.00,WUHU21623XXSP,2013-07-10 18:16:00,
2013-07-10 13:21:00,79.7,58.8,29.97,NNE,25,4.7,10.3,49,0.00,,,0.00,WUHU21623XXSP,2013-07-10 18:21:00,
2013-07-10 13:26:00,79.7,58.2,29.97,NNE,12,2.3,10.3,48,0.00,,,0.00,WUHU21623XXSP,2013-07-10 18:26:00,
2013-07-10 13:31:00,79.9,58.4,29.97,NE,45,5.4,8.3,48,0.00,,,0.00,WUHU21623XXSP,2013-07-10 18:31:00,
2013-07-10 13:36:00,80.2,58.7,29.97,NNE,22,3.9,8.3,48,0.00,,,0.00,WUHU21623XXSP,2013-07-10 18:36:00,
2013-07-10 13:41:00,80.4,58.3,29.97,NNE,31,3.2,8.3,47,0.00,,,0.00,WUHU21623XXSP,2013-07-10 18:41:00,
2013-07-10 13:46:00,80.8,59.2,29.97,NW,315,3.6,8.1,48,0.00,,,0.00,WUHU21623XXSP,2013-07-10 18:46:00,
2013-07-10 13:51:00,81.1,58.9,29.97,West,270,4.9,10.5,47,0.00,,,0.00,WUHU21623XXSP,2013-07-10 18:51:00,
2013-07-10 13:56:00,81.3,57.8,29.97,NNE,22,3.4,10.5,45,0.00,,,0.00,WUHU21623XXSP,2013-07-10 18:56:00,
2013-07-10 14:01:00,81.5,59.2,29.97,West,270,6.3,7.8,47,0.00,,,0.00,WUHU21623XXSP,2013-07-10 19:01:00,
2013-07-10 14:06:00,81.7,58.8,29.97,NE,40,2.1,7.8,46,0.00,,,0.00,WUHU21623XXSP,2013-07-10 19:06:00,
2013-07-10 14:11:00,81.9,58.9,29.97,ENE,67,2.7,5.6,46,0.00,,,0.00,WUHU21623XXSP,2013-07-10 19:11:00,
2013-07-10 14:16:00,82.2,58.7,29.96,WNW,292,10.5,10.5,45,0.00,,,0.00,WUHU21623XXSP,2013-07-10 19:16:00,
2013-07-10 14:21:00,82.6,59.0,29.96,North,0,1.9,10.5,45,0.00,,,0.00,WUHU21623XXSP,2013-07-10 19:21:00,
2013-07-10 14:26:00,82.6,59.0,29.96,WNW,286,3.1,10.1,45,0.00,,,0.00,WUHU21623XXSP,2013-07-10 19:26:00,
2013-07-10 14:31:00,82.9,58.7,29.97,NE,45,2.7,6.9,44,0.00,,,0.00,WUHU21623XXSP,2013-07-10 19:31:00,
2013-07-10 14:36:00,82.9,58.7,29.97,NNE,24,2.4,6.9,44,0.00,,,0.00,WUHU21623XXSP,2013-07-10 19:36:00,
2013-07-10 14:41:00,82.9,58.7,29.97,North,11,4.3,8.7,44,0.00,,,0.00,WUHU21623XXSP,2013-07-10 19:41:00,
2013-07-10 14:47:00,83.1,58.9,29.97,NNW,337,2.9,8.7,44,0.00,,,0.00,WUHU21623XXSP,2013-07-10 19:47:00,
2013-07-10 14:52:00,83.1,58.3,29.97,NNE,22,10.7,11.2,43,0.00,,,0.00,WUHU21623XXSP,2013-07-10 19:52:00,
2013-07-10 14:57:00,82.8,57.9,29.97,North,0,7.2,11.2,43,0.00,,,0.00,WUHU21623XXSP,2013-07-10 19:57:00,
2013-07-10 15:02:00,82.6,57.8,29.97,NNE,28,2.6,10.3,43,0.00,,,0.00,WUHU21623XXSP,2013-07-10 20:02:00,
2013-07-10 15:07:00,82.4,57.6,29.97,ENE,67,4.7,10.3,43,0.00,,,0.00,WUHU21623XXSP,2013-07-10 20:07:00,
2013-07-10 15:12:00,82.4,57.6,29.97,North,0,5.1,6.5,43,0.00,,,0.00,WUHU21623XXSP,2013-07-10 20:12:00,
2013-07-10 15:17:00,82.6,58.4,29.96,NW,310,3.2,7.4,44,0.00,,,0.00,WUHU21623XXSP,2013-07-10 20:17:00,
2013-07-10 15:22:00,82.8,57.9,29.96,NW,323,2.2,7.4,43,0.00,,,0.00,WUHU21623XXSP,2013-07-10 20:22:00,
2013-07-10 15:27:00,82.9,58.1,29.96,North,4,3.7,6.7,43,0.00,,,0.00,WUHU21623XXSP,2013-07-10 20:27:00,
2013-07-10 15:32:00,82.9,58.1,29.96,NE,37,3.1,6.7,43,0.00,,,0.00,WUHU21623XXSP,2013-07-10 20:32:00,
2013-07-10 15:37:00,82.8,57.9,29.96,North,0,2.2,5.1,43,0.00,,,0.00,WUHU21623XXSP,2013-07-10 20:37:00,
2013-07-10 15:42:00,82.9,58.7,29.96,WNW,297,4.0,9.6,44,0.00,,,0.00,WUHU21623XXSP,2013-07-10 20:42:00,
2013-07-10 15:47:00,83.1,58.9,29.96,WNW,300,1.7,9.6,44,0.00,,,0.00,WUHU21623XXSP,2013-07-10 20:47:00,
2013-07-10 15:52:00,83.3,59.1,29.96,ENE,67,4.0,5.4,44,0.00,,,0.00,WUHU21623XXSP,2013-07-10 20:52:00,
2013-07-10 15:57:00,83.3,59.1,29.96,WNW,293,2.7,6.7,44,0.00,,,0.00,WUHU21623XXSP,2013-07-10 20:57:00,
2013-07-10 16:02:00,83.1,58.3,29.96,North,0,2.9,6.7,43,0.00,,,0.00,WUHU21623XXSP,2013-07-10 21:02:00,
2013-07-10 16:07:00,82.9,58.1,29.96,NNE,23,2.1,4.7,43,0.00,,,0.00,WUHU21623XXSP,2013-07-10 21:07:00,
2013-07-10 16:12:00,82.6,58.4,29.96,West,270,2.0,3.8,44,0.00,,,0.00,WUHU21623XXSP,2013-07-10 21:12:00,
2013-07-10 16:17:00,82.6,58.4,29.96,West,273,1.5,3.1,44,0.00,,,0.00,WUHU21623XXSP,2013-07-10 21:17:00,
2013-07-10 16:22:00,82.6,59.0,29.96,ENE,67,3.1,5.1,45,0.00,,,0.00,WUHU21623XXSP,2013-07-10 21:22:00,
2013-07-10 16:27:00,82.2,58.0,29.96,NNW,337,1.8,5.1,44,0.00,,,0.00,WUHU21623XXSP,2013-07-10 21:27:00,
2013-07-10 16:32:00,82.0,58.5,29.96,NW,320,1.7,5.1,45,0.00,,,0.00,WUHU21623XXSP,2013-07-10 21:32:00,
2013-07-10 16:37:00,82.0,57.9,29.96,North,0,2.1,6.3,44,0.00,,,0.00,WUHU21623XXSP,2013-07-10 21:37:00,
2013-07-10 16:42:00,81.7,58.2,29.96,WNW,292,1.3,6.3,45,0.00,,,0.00,WUHU21623XXSP,2013-07-10 21:42:00,
2013-07-10 16:47:00,81.5,58.0,29.96,West,274,4.5,10.5,45,0.00,,,0.00,WUHU21623XXSP,2013-07-10 21:47:00,
2013-07-10 16:52:00,81.3,57.8,29.96,NE,39,1.1,10.5,45,0.00,,,0.00,WUHU21623XXSP,2013-07-10 21:52:00,
2013-07-10 16:57:00,81.0,57.5,29.95,NNE,22,4.0,4.0,45,0.00,,,0.00,WUHU21623XXSP,2013-07-10 21:57:00,
2013-07-10 17:02:00,80.8,57.4,29.96,North,0,2.0,4.0,45,0.00,,,0.00,WUHU21623XXSP,2013-07-10 22:02:00,
2013-07-10 17:07:00,80.4,57.7,29.95,WNW,288,2.5,5.6,46,0.00,,,0.00,WUHU21623XXSP,2013-07-10 22:07:00,
2013-07-10 17:12:00,79.9,57.2,29.95,SW,225,1.3,5.6,46,0.00,,,0.00,WUHU21623XXSP,2013-07-10 22:12:00,
2013-07-10 17:17:00,79.5,57.5,29.95,SW,225,1.6,4.5,47,0.00,,,0.00,WUHU21623XXSP,2013-07-10 22:17:00,
2013-07-10 17:22:00,79.5,57.5,29.95,NW,315,2.2,6.7,47,0.00,,,0.00,WUHU21623XXSP,2013-07-10 22:22:00,
2013-07-10 17:27:00,79.7,57.6,29.95,ENE,57,2.8,6.7,47,0.00,,,0.00,WUHU21623XXSP,2013-07-10 22:27:00,
2013-07-10 17:32:00,79.7,57.6,29.95,NNE,22,2.2,3.8,47,0.00,,,0.00,WUHU21623XXSP,2013-07-10 22:32:00,
2013-07-10 17:37:00,79.7,57.6,29.95,NNE,17,2.7,4.5,47,0.00,,,0.00,WUHU21623XXSP,2013-07-10 22:37:00,
2013-07-10 17:42:00,79.5,57.5,29.95,NNE,18,2.3,4.5,47,0.00,,,0.00,WUHU21623XXSP,2013-07-10 22:42:00,
2013-07-10 17:47:00,79.5,57.5,29.95,North,0,2.2,3.6,47,0.00,,,0.00,WUHU21623XXSP,2013-07-10 22:47:00,
2013-07-10 17:52:00,79.5,58.1,29.95,NNW,338,2.3,4.5,48,0.00,,,0.00,WUHU21623XXSP,2013-07-10 22:52:00,
2013-07-10 17:57:00,79.3,57.9,29.95,West,271,0.9,4.5,48,0.00,,,0.00,WUHU21623XXSP,2013-07-10 22:57:00,
2013-07-10 18:02:00,79.3,57.9,29.95,NE,45,4.5,4.5,48,0.00,,,0.00,WUHU21623XXSP,2013-07-10 23:02:00,
2013-07-10 18:07:00,79.3,57.9,29.94,NNW,344,1.4,4.9,48,0.00,,,0.00,WUHU21623XXSP,2013-07-10 23:07:00,
2013-07-10 18:12:00,79.2,57.7,29.93,WSW,248,1.8,4.9,48,0.00,,,0.00,WUHU21623XXSP,2013-07-10 23:12:00,
2013-07-10 18:17:00,79.2,57.7,29.94,NNW,337,0.7,4.7,48,0.00,,,0.00,WUHU21623XXSP,2013-07-10 23:17:00,
2013-07-10 18:22:00,79.2,57.7,29.94,West,270,2.2,3.1,48,0.00,,,0.00,WUHU21623XXSP,2013-07-10 23:22:00,
2013-07-10 18:27:00,79.0,58.2,29.94,NNW,337,2.0,3.1,49,0.00,,,0.00,WUHU21623XXSP,2013-07-10 23:27:00,
2013-07-10 18:32:00,79.0,58.2,29.94,WNW,287,0.8,5.8,49,0.00,,,0.00,WUHU21623XXSP,2013-07-10 23:32:00,
2013-07-10 18:37:00,79.0,58.2,29.94,NW,309,1.3,5.8,49,0.00,,,0.00,WUHU21623XXSP,2013-07-10 23:37:00,
2013-07-10 18:42:00,78.8,58.0,29.94,WSW,247,2.2,2.2,49,0.00,,,0.00,WUHU21623XXSP,2013-07-10 23:42:00,
2013-07-10 18:48:00,78.6,57.9,29.94,NW,318,1.9,3.4,49,0.00,,,0.00,WUHU21623XXSP,2013-07-10 23:48:00,
2013-07-10 18:53:00,78.6,58.5,29.94,WNW,301,0.9,3.4,50,0.00,,,0.00,WUHU21623XXSP,2013-07-10 23:53:00,
2013-07-10 18:58:00,78.6,58.5,29.94,West,270,1.8,1.8,50,0.00,,,0.00,WUHU21623XXSP,2013-07-10 23:58:00,
2013-07-10 19:03:00,78.4,58.8,29.94,NNW,330,1.0,2.0,51,0.00,,,0.00,WUHU21623XXSP,2013-07-11 00:03:00,
2013-07-10 19:08:00,78.4,58.8,29.95,West,270,0.7,2.9,51,0.00,,,0.00,WUHU21623XXSP,2013-07-11 00:08:00,
2013-07-10 19:13:00,78.1,59.0,29.95,North,0,0.7,2.9,52,0.00,,,0.00,WUHU21623XXSP,2013-07-11 00:13:00,
2013-07-10 19:18:00,77.9,58.9,29.94,NNW,337,0.9,1.3,52,0.00,,,0.00,WUHU21623XXSP,2013-07-11 00:18:00,
2013-07-10 19:23:00,77.7,58.7,29.94,WNW,292,0.0,0.9,52,0.00,,,0.00,WUHU21623XXSP,2013-07-11 00:23:00,
2013-07-10 19:28:00,77.7,59.2,29.94,West,278,1.1,1.8,53,0.00,,,0.00,WUHU21623XXSP,2013-07-11 00:28:00,
2013-07-10 19:33:00,77.5,59.0,29.94,NW,315,0.0,1.8,53,0.00,,,0.00,WUHU21623XXSP,2013-07-11 00:33:00,
2013-07-10 19:38:00,77.4,59.4,29.94,North,0,0.9,0.9,54,0.00,,,0.00,WUHU21623XXSP,2013-07-11 00:38:00,
2013-07-10 19:43:00,77.2,59.2,29.94,WSW,247,0.0,1.3,54,0.00,,,0.00,WUHU21623XXSP,2013-07-11 00:43:00,
2013-07-10 19:48:00,76.8,59.4,29.94,WSW,247,0.0,1.3,55,0.00,,,0.00,WUHU21623XXSP,2013-07-11 00:48:00,
2013-07-10 19:53:00,76.8,59.4,29.94,West,270,1.0,1.3,55,0.00,,,0.00,WUHU21623XXSP,2013-07-11 00:53:00,
2013-07-10 19:58:00,76.5,59.6,29.94,WSW,247,0.0,1.3,56,0.00,,,0.00,WUHU21623XXSP,2013-07-11 00:58:00,
2013-07-10 20:03:00,76.1,59.7,29.94,WSW,247,1.0,1.1,57,0.00,,,0.00,WUHU21623XXSP,2013-07-11 01:03:00,
2013-07-10 20:08:00,75.9,59.6,29.94,WSW,247,0.0,1.1,57,0.00,,,0.00,WUHU21623XXSP,2013-07-11 01:08:00,
2013-07-10 20:13:00,75.7,59.4,29.94,WSW,247,0.0,0.0,57,0.00,,,0.00,WUHU21623XXSP,2013-07-11 01:13:00,
2013-07-10 20:18:00,75.6,59.8,29.94,West,270,0.0,1.6,58,0.00,,,0.00,WUHU21623XXSP,2013-07-11 01:18:00,
2013-07-10 20:23:00,75.4,59.6,29.94,West,270,0.0,1.6,58,0.00,,,0.00,WUHU21623XXSP,2013-07-11 01:23:00,
2013-07-10 20:28:00,75.0,59.3,29.94,WSW,247,0.0,0.0,58,0.00,,,0.00,WUHU21623XXSP,2013-07-11 01:28:00,
2013-07-10 20:33:00,74.8,59.6,29.94,WSW,247,0.0,0.0,59,0.00,,,0.00,WUHU21623XXSP,2013-07-11 01:33:00,
2013-07-10 20:38:00,74.5,59.2,29.94,WSW,247,0.0,0.0,59,0.00,,,0.00,WUHU21623XXSP,2013-07-11 01:38:00,
2013-07-10 20:43:00,74.3,59.5,29.95,WSW,247,0.0,0.0,60,0.00,,,0.00,WUHU21623XXSP,2013-07-11 01:43:00,
2013-07-10 20:48:00,73.9,59.2,29.95,WSW,247,0.0,0.0,60,0.00,,,0.00,WUHU21623XXSP,2013-07-11 01:48:00,
2013-07-10 20:53:00,73.6,58.8,29.94,WNW,292,0.0,0.0,60,0.00,,,0.00,WUHU21623XXSP,2013-07-11 01:53:00,
2013-07-10 20:58:00,73.4,59.1,29.95,WNW,292,0.0,0.0,61,0.00,,,0.00,WUHU21623XXSP,2013-07-11 01:58:00,
2013-07-10 21:03:00,73.0,59.2,29.95,WNW,292,0.0,0.0,62,0.00,,,0.00,WUHU21623XXSP,2013-07-11 02:03:00,
2013-07-10 21:08:00,72.7,58.9,29.95,WNW,292,0.0,0.0,62,0.00,,,0.00,WUHU21623XXSP,2013-07-11 02:08:00,
2013-07-10 21:13:00,72.3,58.5,29.95,WNW,292,0.0,0.0,62,0.00,,,0.00,WUHU21623XXSP,2013-07-11 02:13:00,
2013-07-10 21:18:00,72.1,58.8,29.95,WNW,292,0.0,0.0,63,0.00,,,0.00,WUHU21623XXSP,2013-07-11 02:18:00,
2013-07-10 21:23:00,71.8,58.5,29.95,WNW,292,0.0,0.0,63,0.00,,,0.00,WUHU21623XXSP,2013-07-11 02:23:00,
2013-07-10 21:28:00,71.4,58.6,29.95,WNW,292,0.0,0.0,64,0.00,,,0.00,WUHU21623XXSP,2013-07-11 02:28:00,
2013-07-10 21:33:00,71.2,58.4,29.96,WNW,292,0.0,0.0,64,0.00,,,0.00,WUHU21623XXSP,2013-07-11 02:33:00,
2013-07-10 21:38:00,70.7,57.9,29.96,WNW,292,0.0,0.0,64,0.00,,,0.00,WUHU21623XXSP,2013-07-11 02:38:00,
2013-07-10 21:43:00,70.5,58.2,29.96,WNW,292,0.0,0.0,65,0.00,,,0.00,WUHU21623XXSP,2013-07-11 02:43:00,
2013-07-10 21:48:00,70.2,58.2,29.96,WNW,292,0.0,0.0,66,0.00,,,0.00,WUHU21623XXSP,2013-07-11 02:48:00,
2013-07-10 21:53:00,70.0,58.0,29.96,WNW,292,0.0,0.0,66,0.00,,,0.00,WUHU21623XXSP,2013-07-11 02:53:00,
2013-07-10 21:58:00,69.6,57.7,29.97,WNW,292,0.0,0.0,66,0.00,,,0.00,WUHU21623XXSP,2013-07-11 02:58:00,
2013-07-10 22:03:00,69.6,58.1,29.97,WNW,292,0.0,0.0,67,0.00,,,0.00,WUHU21623XXSP,2013-07-11 03:03:00,
2013-07-10 22:08:00,69.4,58.0,29.97,West,270,0.0,0.0,67,0.00,,,0.00,WUHU21623XXSP,2013-07-11 03:08:00,
2013-07-10 22:13:00,69.1,58.0,29.98,West,270,0.0,0.0,68,0.00,,,0.00,WUHU21623XXSP,2013-07-11 03:13:00,
2013-07-10 22:18:00,68.9,57.9,29.98,West,270,0.0,0.0,68,0.00,,,0.00,WUHU21623XXSP,2013-07-11 03:18:00,
2013-07-10 22:23:00,68.7,57.7,29.98,NW,315,0.0,0.0,68,0.00,,,0.00,WUHU21623XXSP,2013-07-11 03:23:00,
2013-07-10 22:29:00,68.5,58.0,29.98,West,270,0.0,0.0,69,0.00,,,0.00,WUHU21623XXSP,2013-07-11 03:29:00,
2013-07-10 22:34:00,68.4,57.8,29.98,West,270,0.0,0.0,69,0.00,,,0.00,WUHU21623XXSP,2013-07-11 03:34:00,
2013-07-10 22:39:00,68.2,57.7,29.98,West,270,0.0,0.7,69,0.00,,,0.00,WUHU21623XXSP,2013-07-11 03:39:00,
2013-07-10 22:44:00,68.2,57.7,29.98,West,270,0.0,0.7,69,0.00,,,0.00,WUHU21623XXSP,2013-07-11 03:44:00,
2013-07-10 22:49:00,68.0,57.9,29.98,West,270,0.0,0.0,70,0.00,,,0.00,WUHU21623XXSP,2013-07-11 03:49:00,
2013-07-10 22:54:00,67.8,57.7,29.98,West,270,0.0,0.0,70,0.00,,,0.00,WUHU21623XXSP,2013-07-11 03:54:00,
2013-07-10 22:59:00,67.8,57.7,29.98,West,270,0.0,0.0,70,0.00,,,0.00,WUHU21623XXSP,2013-07-11 03:59:00,
2013-07-10 23:01:00,67.8,58.1,29.99,NW,315,0.0,0.0,71,0.00,,,0.00,WUHU21623XXSP,2013-07-11 04:01:00,
2013-07-10 23:06:00,67.6,57.9,29.99,WNW,292,0.0,0.0,71,0.00,,,0.00,WUHU21623XXSP,2013-07-11 04:06:00,
2013-07-10 23:11:00,67.6,57.9,29.98,West,270,0.0,0.9,71,0.00,,,0.00,WUHU21623XXSP,2013-07-11 04:11:00,
2013-07-10 23:16:00,67.3,58.0,29.98,West,270,0.0,0.9,72,0.00,,,0.00,WUHU21623XXSP,2013-07-11 04:16:00,
2013-07-10 23:21:00,67.3,58.0,29.98,WNW,292,0.0,0.9,72,0.00,,,0.00,WUHU21623XXSP,2013-07-11 04:21:00,
2013-07-10 23:26:00,67.1,57.8,29.99,WNW,292,0.0,0.9,72,0.00,,,0.00,WUHU21623XXSP,2013-07-11 04:26:00,
2013-07-10 23:31:00,66.9,57.6,29.98,WNW,292,0.0,0.0,72,0.00,,,0.00,WUHU21623XXSP,2013-07-11 04:31:00,
2013-07-10 23:36:00,66.7,57.4,29.98,WNW,292,0.0,0.0,72,0.00,,,0.00,WUHU21623XXSP,2013-07-11 04:36:00,
2013-07-10 23:41:00,66.6,57.2,29.99,WNW,292,0.9,0.9,72,0.00,,,0.00,WUHU21623XXSP,2013-07-11 04:41:00,
2013-07-10 23:46:00,66.4,57.1,29.99,WNW,292,0.0,0.9,72,0.00,,,0.00,WUHU21623XXSP,2013-07-11 04:46:00,
2013-07-10 23:52:00,66.4,57.1,29.99,West,270,0.0,0.0,72,0.00,,,0.00,WUHU21623XXSP,2013-07-11 04:52:00,
2013-07-10 23:57:00,66.2,57.3,29.99,WNW,292,0.0,0.0,73,0.00,,,0.00,WUHU21623XXSP,2013-07-11 04:57:00,